This is the latest recevied weather packets stored in our database for station/object JA6YCL-13. If no packets are shown the sender has not sent any weather packets the latest 10 day(s).
| Time | Temp. | Humidity | Pressure | Rain* | Wind** | Luminosity | Snow |
|---|---|---|---|---|---|---|---|
| 1777778704 | 21.11° C | 66% | 1004.8 hPa | 0 mm | - | - | - |
| 1777777961 | 21.11° C | 65% | 1005.1 hPa | 0 mm | - | - | - |
| 1777777161 | 19.44° C | 69% | 1005.6 hPa | 0 mm | - | - | - |
| 1777776302 | 19.44° C | 69% | 1005.6 hPa | 0 mm | - | - | - |
| 1777775417 | 18.89° C | 70% | 1006.1 hPa | 0 mm | - | - | - |
| 1777774554 | 19.44° C | 68% | 1006.4 hPa | 0 mm | - | - | - |
| 1777773736 | 18.33° C | 70% | 1006.7 hPa | 0 mm | - | - | - |
| 1777772982 | 17.22° C | 72% | 1007.3 hPa | 0 mm | - | - | - |
| 1777772221 | 17.22° C | 71% | 1007.4 hPa | 0 mm | - | - | - |
| 1777771501 | 16.67° C | 78% | 1008.1 hPa | 0 mm | - | - | - |
| 1777770701 | 16.67° C | 77% | 1008.1 hPa | 0 mm | - | - | - |
| 1777769843 | 17.22° C | 76% | 1008.1 hPa | 0 mm | - | - | - |
| 1777769001 | 17.22° C | 79% | 1008.2 hPa | 0 mm | - | - | - |
| 1777768235 | 17.22° C | 77% | 1008.5 hPa | 0 mm | - | - | - |
| 1777767429 | 17.78° C | 70% | 1008.7 hPa | 0 mm | - | - | - |
| 1777766706 | 16.67° C | 76% | 1008.9 hPa | 0 mm | - | - | - |
| 1777765891 | 16.67° C | 78% | 1009.1 hPa | 0 mm | - | - | - |
| 1777765001 | 16.11° C | 80% | 1009.2 hPa | 0 mm | - | - | - |
| 1777764123 | 16.11° C | 79% | 1009.4 hPa | 0 mm | - | - | - |
| 1777763341 | 16.11° C | 78% | 1009.5 hPa | 0 mm | - | - | - |
| 1777762533 | 16.11° C | 78% | 1009.6 hPa | 0 mm | - | - | - |
| 1777761766 | 16.11° C | 71% | 1009.6 hPa | 0 mm | - | - | - |
| 1777760871 | 16.11° C | 70% | 1010 hPa | 0 mm | - | - | - |
| 1777760091 | 16.11° C | 73% | 1009.9 hPa | 0 mm | - | - | - |
| 1777759282 | 16.67° C | 73% | 1009.9 hPa | 0 mm | - | - | - |
* Rain latest hour (hover to see other rain measurements)
** Current wind speed in m/s (hover to see current wind gust speed)